Details From EGTE - Exeter
To EGJJ - Jersey
Flight Number -
Tags generated
Created
Modified
Stats Distance 103 nm / 191 km
Max Altitude 0 ft / 0 m
Waypoints 2
Social Downloads 0
Likes 0
Share VATSIM

Download

Looking for another format? Having issues loading an existing format? Contact us
Advertisement - Login to hide

Notes

Basic altitude profile: - Ascent Rate: 1000ft/min - Ascent Speed: 200kts - Cruise Altitude: 1000ft - Cruise Speed: 220kts - Descent Rate: 1500ft/min - Descent Speed: 180kts Options: - Use NATs: no - Use PACOTS: no - Use low airways: no - Use high airways: no

Route

EGTE EGJJ

ID Type Via Altitude (ft/m) Position (lat/lon) Dist (leg/tot) Name
O EGTE APT - 0 / 0 50.73430 / -3.41377 - / 0 nm Exeter
O EGJJ APT - 0 / 0 49.20800 / -2.19523 103 / 103 nm Jersey

Altitude Profile

Advertisement - Login to hide

EGTE

Details ICAO EGTE (EXT)
Name Exeter
Region United Kingdom
Timezone Europe/London (UTC+0.0)
Stats Elevation 102 ft / 31 m (AMSL)
Location 50.734300° -3.413770°
Runways 1
Magnetic Variation 1.377° W

METAR

EGTE 131620Z 19008KT 9999 FEW045 12/08 Q1023

Decode

TAF

Not found

Departure Runways

ID Width Length Bearing (true/mag) Surface Threshold Overrun Markings Lighting
08 148 ft / 45 m 6,839 ft / 2,085 m 76.13° / 77.50° ASPHALT 0 ft / 0 m 0 ft / 0 m UK-PREC-APP EDGE THRESHOLD MALS REIL-OMNI
26 148 ft / 45 m 6,839 ft / 2,085 m 256.15° / 257.53° ASPHALT 0 ft / 0 m 0 ft / 0 m UK-PREC-APP EDGE THRESHOLD CALVERT REIL-OMNI

EGJJ

Details ICAO EGJJ (JER)
Name Jersey
Region United Kingdom
Timezone Europe/Jersey (UTC+0.0)
Stats Elevation 276 ft / 84 m (AMSL)
Location 49.208000° -2.195230°
Runways 1
Magnetic Variation 0.773° W

METAR

EGJJ 131620Z 20007KT 9999 FEW015 12/09 Q1025

Decode

TAF

Not found

Destination Runways

ID Width Length Bearing (true/mag) Surface Threshold Overrun Markings Lighting
08 151 ft / 46 m 5,600 ft / 1,707 m 82.74° / 83.51° ASPHALT 190 ft / 58 m 0 ft / 0 m UK-PREC-APP CENTERLINE EDGE THRESHOLD CALVERT TDZ REIL-OMNI
26 151 ft / 46 m 5,600 ft / 1,707 m 262.76° / 263.53° ASPHALT 318 ft / 97 m 0 ft / 0 m UK-PREC-APP CENTERLINE EDGE THRESHOLD CALVERT-ILS TDZ REIL-OMNI

Approach Navaids

Runway Type Ident Frequency Range Bearing (true/mag) Slope Elevation
08 LOC-ILS IJJ 110.90 MHz 18 nm / 33 km 82.75° / 83.52 ° - 276 ft / 84 m (AMSL)
08 GS IJJ 110.90 MHz 18 nm / 33 km 82.75° / 83.52 ° 3.00° 276 ft / 84 m (AMSL)
08 DME IJJ 110.90 MHz 18 nm / 33 km - - 287 ft / 87 m (AMSL)
26 DME IDD 110.30 MHz 18 nm / 33 km - - 289 ft / 88 m (AMSL)
26 LOC-ILS IDD 110.30 MHz 18 nm / 33 km 262.70° / 263.47 ° - 276 ft / 84 m (AMSL)
26 GS IDD 110.30 MHz 18 nm / 33 km 263.75° / 264.52 ° 3.00° 276 ft / 84 m (AMSL)

Popular Alternatives